sensor_id;sensor_type;location;lat;lon;timestamp;P1;durP1;ratioP1;P2;durP2;ratioP2
77061;SDS011;65989;51.686;5.138;2023-06-19T00:02:23;13.53;;;9.23;;
77061;SDS011;65989;51.686;5.138;2023-06-19T00:04:48;13.73;;;8.60;;
77061;SDS011;65989;51.686;5.138;2023-06-19T00:07:14;18.93;;;9.10;;
77061;SDS011;65989;51.686;5.138;2023-06-19T00:09:39;13.80;;;8.67;;
77061;SDS011;65989;51.686;5.138;2023-06-19T00:12:04;13.77;;;8.53;;
77061;SDS011;65989;51.686;5.138;2023-06-19T00:14:30;13.17;;;8.53;;
77061;SDS011;65989;51.686;5.138;2023-06-19T00:16:55;11.63;;;7.80;;
77061;SDS011;65989;51.686;5.138;2023-06-19T00:19:21;14.33;;;8.27;;
77061;SDS011;65989;51.686;5.138;2023-06-19T00:21:46;13.80;;;7.57;;
77061;SDS011;65989;51.686;5.138;2023-06-19T00:24:11;10.50;;;7.50;;
77061;SDS011;65989;51.686;5.138;2023-06-19T00:26:37;13.33;;;7.50;;
77061;SDS011;65989;51.686;5.138;2023-06-19T00:29:02;10.87;;;7.10;;
77061;SDS011;65989;51.686;5.138;2023-06-19T00:31:27;10.10;;;6.50;;
77061;SDS011;65989;51.686;5.138;2023-06-19T00:33:53;10.20;;;6.17;;
77061;SDS011;65989;51.686;5.138;2023-06-19T00:36:18;11.50;;;6.28;;
77061;SDS011;65989;51.686;5.138;2023-06-19T00:38:48;9.53;;;6.20;;
77061;SDS011;65989;51.686;5.138;2023-06-19T00:41:14;8.30;;;5.83;;
77061;SDS011;65989;51.686;5.138;2023-06-19T00:43:40;7.97;;;5.25;;
77061;SDS011;65989;51.686;5.138;2023-06-19T00:46:05;8.80;;;5.53;;
77061;SDS011;65989;51.686;5.138;2023-06-19T00:48:31;9.55;;;5.53;;
77061;SDS011;65989;51.686;5.138;2023-06-19T00:50:57;8.53;;;5.03;;
77061;SDS011;65989;51.686;5.138;2023-06-19T00:53:23;8.48;;;5.57;;
77061;SDS011;65989;51.686;5.138;2023-06-19T00:55:48;9.77;;;5.33;;
77061;SDS011;65989;51.686;5.138;2023-06-19T00:58:16;9.30;;;5.43;;
77061;SDS011;65989;51.686;5.138;2023-06-19T01:00:42;8.37;;;5.73;;
77061;SDS011;65989;51.686;5.138;2023-06-19T01:03:07;7.93;;;5.17;;
77061;SDS011;65989;51.686;5.138;2023-06-19T01:05:32;9.13;;;4.50;;
77061;SDS011;65989;51.686;5.138;2023-06-19T01:10:47;7.97;;;4.40;;
77061;SDS011;65989;51.686;5.138;2023-06-19T01:15:40;8.27;;;4.37;;
77061;SDS011;65989;51.686;5.138;2023-06-19T01:18:06;8.77;;;4.30;;
77061;SDS011;65989;51.686;5.138;2023-06-19T01:20:32;8.13;;;3.80;;
77061;SDS011;65989;51.686;5.138;2023-06-19T01:23:04;10.40;;;3.88;;
77061;SDS011;65989;51.686;5.138;2023-06-19T01:25:30;5.80;;;3.03;;
77061;SDS011;65989;51.686;5.138;2023-06-19T01:27:55;6.30;;;3.40;;
77061;SDS011;65989;51.686;5.138;2023-06-19T01:30:20;6.07;;;3.07;;
77061;SDS011;65989;51.686;5.138;2023-06-19T01:32:56;5.83;;;3.17;;
77061;SDS011;65989;51.686;5.138;2023-06-19T01:35:27;6.60;;;3.10;;
77061;SDS011;65989;51.686;5.138;2023-06-19T01:37:53;6.63;;;3.20;;
77061;SDS011;65989;51.686;5.138;2023-06-19T01:40:19;5.50;;;2.97;;
77061;SDS011;65989;51.686;5.138;2023-06-19T01:42:49;7.28;;;3.40;;
77061;SDS011;65989;51.686;5.138;2023-06-19T01:45:15;5.43;;;2.77;;
77061;SDS011;65989;51.686;5.138;2023-06-19T01:47:41;9.13;;;3.20;;
77061;SDS011;65989;51.686;5.138;2023-06-19T01:50:06;7.93;;;3.00;;
77061;SDS011;65989;51.686;5.138;2023-06-19T01:52:32;5.17;;;2.80;;
77061;SDS011;65989;51.686;5.138;2023-06-19T01:54:58;7.00;;;3.10;;
77061;SDS011;65989;51.686;5.138;2023-06-19T01:57:23;10.87;;;3.30;;
77061;SDS011;65989;51.686;5.138;2023-06-19T01:59:48;5.97;;;2.87;;
77061;SDS011;65989;51.686;5.138;2023-06-19T02:02:13;5.97;;;3.00;;
77061;SDS011;65989;51.686;5.138;2023-06-19T02:04:39;5.20;;;2.90;;
77061;SDS011;65989;51.686;5.138;2023-06-19T02:07:04;6.10;;;2.83;;
77061;SDS011;65989;51.686;5.138;2023-06-19T02:09:29;5.23;;;2.97;;
77061;SDS011;65989;51.686;5.138;2023-06-19T02:11:54;7.03;;;3.13;;
77061;SDS011;65989;51.686;5.138;2023-06-19T02:14:20;5.73;;;3.20;;
77061;SDS011;65989;51.686;5.138;2023-06-19T02:16:45;6.23;;;3.00;;
77061;SDS011;65989;51.686;5.138;2023-06-19T02:19:10;7.20;;;3.13;;
77061;SDS011;65989;51.686;5.138;2023-06-19T02:21:36;6.45;;;3.20;;
77061;SDS011;65989;51.686;5.138;2023-06-19T02:24:01;5.80;;;3.00;;
77061;SDS011;65989;51.686;5.138;2023-06-19T02:26:27;5.90;;;3.05;;
77061;SDS011;65989;51.686;5.138;2023-06-19T02:28:54;7.30;;;2.90;;
77061;SDS011;65989;51.686;5.138;2023-06-19T02:31:20;6.35;;;2.83;;
77061;SDS011;65989;51.686;5.138;2023-06-19T02:33:45;6.90;;;3.10;;
77061;SDS011;65989;51.686;5.138;2023-06-19T02:36:10;6.13;;;3.00;;
77061;SDS011;65989;51.686;5.138;2023-06-19T02:38:35;5.93;;;3.10;;
77061;SDS011;65989;51.686;5.138;2023-06-19T02:41:01;7.23;;;3.10;;
77061;SDS011;65989;51.686;5.138;2023-06-19T02:43:26;6.47;;;3.05;;
77061;SDS011;65989;51.686;5.138;2023-06-19T02:45:52;5.47;;;3.07;;
77061;SDS011;65989;51.686;5.138;2023-06-19T02:48:17;7.23;;;3.30;;
77061;SDS011;65989;51.686;5.138;2023-06-19T02:50:42;12.73;;;3.10;;
77061;SDS011;65989;51.686;5.138;2023-06-19T02:53:08;7.03;;;3.20;;
77061;SDS011;65989;51.686;5.138;2023-06-19T02:55:33;6.45;;;3.22;;
77061;SDS011;65989;51.686;5.138;2023-06-19T02:57:59;6.90;;;3.40;;
77061;SDS011;65989;51.686;5.138;2023-06-19T03:00:24;5.40;;;3.15;;
77061;SDS011;65989;51.686;5.138;2023-06-19T03:02:52;8.00;;;2.87;;
77061;SDS011;65989;51.686;5.138;2023-06-19T03:05:18;7.13;;;3.38;;
77061;SDS011;65989;51.686;5.138;2023-06-19T03:07:43;8.70;;;3.53;;
77061;SDS011;65989;51.686;5.138;2023-06-19T03:10:09;6.40;;;3.77;;
77061;SDS011;65989;51.686;5.138;2023-06-19T03:12:34;6.97;;;3.77;;
77061;SDS011;65989;51.686;5.138;2023-06-19T03:14:59;6.97;;;3.50;;
77061;SDS011;65989;51.686;5.138;2023-06-19T03:17:24;7.43;;;3.47;;
77061;SDS011;65989;51.686;5.138;2023-06-19T03:19:50;6.03;;;3.43;;
77061;SDS011;65989;51.686;5.138;2023-06-19T03:22:15;7.83;;;3.60;;
77061;SDS011;65989;51.686;5.138;2023-06-19T03:24:40;8.80;;;3.90;;
77061;SDS011;65989;51.686;5.138;2023-06-19T03:27:05;7.70;;;3.47;;
77061;SDS011;65989;51.686;5.138;2023-06-19T03:29:31;6.37;;;3.60;;
77061;SDS011;65989;51.686;5.138;2023-06-19T03:31:56;10.20;;;3.87;;
77061;SDS011;65989;51.686;5.138;2023-06-19T03:34:21;7.30;;;3.80;;
77061;SDS011;65989;51.686;5.138;2023-06-19T03:36:47;8.00;;;3.80;;
77061;SDS011;65989;51.686;5.138;2023-06-19T03:39:12;6.95;;;3.70;;
77061;SDS011;65989;51.686;5.138;2023-06-19T03:41:37;6.33;;;3.70;;
77061;SDS011;65989;51.686;5.138;2023-06-19T03:44:02;7.20;;;3.80;;
77061;SDS011;65989;51.686;5.138;2023-06-19T03:46:30;7.90;;;3.63;;
77061;SDS011;65989;51.686;5.138;2023-06-19T03:48:55;7.10;;;3.90;;
77061;SDS011;65989;51.686;5.138;2023-06-19T03:51:21;9.50;;;4.10;;
77061;SDS011;65989;51.686;5.138;2023-06-19T03:53:46;6.03;;;3.53;;
77061;SDS011;65989;51.686;5.138;2023-06-19T03:56:11;8.53;;;4.40;;
77061;SDS011;65989;51.686;5.138;2023-06-19T03:58:37;11.67;;;4.40;;
77061;SDS011;65989;51.686;5.138;2023-06-19T04:01:02;8.13;;;4.37;;
77061;SDS011;65989;51.686;5.138;2023-06-19T04:03:28;12.27;;;4.40;;
77061;SDS011;65989;51.686;5.138;2023-06-19T04:05:53;7.73;;;4.90;;
77061;SDS011;65989;51.686;5.138;2023-06-19T04:08:18;16.97;;;4.73;;
77061;SDS011;65989;51.686;5.138;2023-06-19T04:10:44;10.30;;;4.97;;
77061;SDS011;65989;51.686;5.138;2023-06-19T04:13:09;9.07;;;4.83;;
77061;SDS011;65989;51.686;5.138;2023-06-19T04:15:34;11.98;;;5.53;;
77061;SDS011;65989;51.686;5.138;2023-06-19T04:18:00;13.53;;;5.67;;
77061;SDS011;65989;51.686;5.138;2023-06-19T04:20:26;10.25;;;6.72;;
77061;SDS011;65989;51.686;5.138;2023-06-19T04:22:51;10.10;;;6.83;;
77061;SDS011;65989;51.686;5.138;2023-06-19T04:25:17;11.43;;;7.67;;
77061;SDS011;65989;51.686;5.138;2023-06-19T04:27:43;10.35;;;7.28;;
77061;SDS011;65989;51.686;5.138;2023-06-19T04:30:09;14.88;;;8.63;;
77061;SDS011;65989;51.686;5.138;2023-06-19T04:32:35;14.93;;;9.73;;
77061;SDS011;65989;51.686;5.138;2023-06-19T04:35:00;14.50;;;9.17;;
77061;SDS011;65989;51.686;5.138;2023-06-19T04:37:26;13.73;;;9.87;;
77061;SDS011;65989;51.686;5.138;2023-06-19T04:39:51;15.60;;;9.87;;
77061;SDS011;65989;51.686;5.138;2023-06-19T04:42:16;13.37;;;9.67;;
77061;SDS011;65989;51.686;5.138;2023-06-19T04:44:48;14.80;;;9.73;;
77061;SDS011;65989;51.686;5.138;2023-06-19T04:47:16;15.23;;;9.65;;
77061;SDS011;65989;51.686;5.138;2023-06-19T04:49:42;13.95;;;9.48;;
77061;SDS011;65989;51.686;5.138;2023-06-19T04:52:07;17.33;;;10.17;;
77061;SDS011;65989;51.686;5.138;2023-06-19T04:54:32;14.40;;;9.50;;
77061;SDS011;65989;51.686;5.138;2023-06-19T04:56:58;14.80;;;10.00;;
77061;SDS011;65989;51.686;5.138;2023-06-19T04:59:23;15.30;;;9.25;;
77061;SDS011;65989;51.686;5.138;2023-06-19T05:01:51;13.57;;;9.80;;
77061;SDS011;65989;51.686;5.138;2023-06-19T05:04:20;16.00;;;9.80;;
77061;SDS011;65989;51.686;5.138;2023-06-19T05:06:45;14.23;;;9.90;;
77061;SDS011;65989;51.686;5.138;2023-06-19T05:09:11;16.37;;;10.43;;
77061;SDS011;65989;51.686;5.138;2023-06-19T05:11:36;15.40;;;9.90;;
77061;SDS011;65989;51.686;5.138;2023-06-19T05:14:02;13.07;;;8.85;;
77061;SDS011;65989;51.686;5.138;2023-06-19T05:16:27;12.20;;;8.30;;
77061;SDS011;65989;51.686;5.138;2023-06-19T05:18:52;12.10;;;7.30;;
77061;SDS011;65989;51.686;5.138;2023-06-19T05:21:18;10.67;;;7.43;;
77061;SDS011;65989;51.686;5.138;2023-06-19T05:23:43;11.93;;;7.75;;
77061;SDS011;65989;51.686;5.138;2023-06-19T05:26:08;12.13;;;8.27;;
77061;SDS011;65989;51.686;5.138;2023-06-19T05:28:34;11.20;;;7.00;;
77061;SDS011;65989;51.686;5.138;2023-06-19T05:30:59;12.10;;;8.00;;
77061;SDS011;65989;51.686;5.138;2023-06-19T05:33:24;11.63;;;7.40;;
77061;SDS011;65989;51.686;5.138;2023-06-19T05:35:49;10.00;;;7.27;;
77061;SDS011;65989;51.686;5.138;2023-06-19T05:38:19;10.05;;;7.40;;
77061;SDS011;65989;51.686;5.138;2023-06-19T05:40:44;10.00;;;7.03;;
77061;SDS011;65989;51.686;5.138;2023-06-19T05:43:09;10.70;;;7.03;;
77061;SDS011;65989;51.686;5.138;2023-06-19T05:45:35;9.93;;;6.27;;
77061;SDS011;65989;51.686;5.138;2023-06-19T05:48:00;12.77;;;6.80;;
77061;SDS011;65989;51.686;5.138;2023-06-19T05:50:25;10.90;;;6.97;;
77061;SDS011;65989;51.686;5.138;2023-06-19T05:52:51;11.47;;;7.40;;
77061;SDS011;65989;51.686;5.138;2023-06-19T05:55:16;11.60;;;7.70;;
77061;SDS011;65989;51.686;5.138;2023-06-19T05:57:42;12.50;;;7.90;;
77061;SDS011;65989;51.686;5.138;2023-06-19T06:00:07;11.40;;;8.15;;
77061;SDS011;65989;51.686;5.138;2023-06-19T06:02:35;12.40;;;7.67;;
77061;SDS011;65989;51.686;5.138;2023-06-19T06:05:01;11.93;;;7.50;;
77061;SDS011;65989;51.686;5.138;2023-06-19T06:07:26;11.37;;;7.70;;
77061;SDS011;65989;51.686;5.138;2023-06-19T06:09:53;10.57;;;7.13;;
77061;SDS011;65989;51.686;5.138;2023-06-19T06:12:18;11.00;;;8.00;;
77061;SDS011;65989;51.686;5.138;2023-06-19T06:14:44;10.50;;;7.60;;
77061;SDS011;65989;51.686;5.138;2023-06-19T06:17:09;13.00;;;7.40;;
77061;SDS011;65989;51.686;5.138;2023-06-19T06:19:35;14.17;;;8.10;;
77061;SDS011;65989;51.686;5.138;2023-06-19T06:22:02;11.93;;;7.55;;
77061;SDS011;65989;51.686;5.138;2023-06-19T06:24:27;11.03;;;8.07;;
77061;SDS011;65989;51.686;5.138;2023-06-19T06:26:52;12.07;;;8.23;;
77061;SDS011;65989;51.686;5.138;2023-06-19T06:29:17;11.03;;;7.80;;
77061;SDS011;65989;51.686;5.138;2023-06-19T06:31:46;14.00;;;8.02;;
77061;SDS011;65989;51.686;5.138;2023-06-19T06:34:11;12.48;;;7.95;;
77061;SDS011;65989;51.686;5.138;2023-06-19T06:36:37;13.55;;;8.50;;
77061;SDS011;65989;51.686;5.138;2023-06-19T06:39:03;11.43;;;7.50;;
77061;SDS011;65989;51.686;5.138;2023-06-19T06:41:28;11.00;;;7.33;;
77061;SDS011;65989;51.686;5.138;2023-06-19T06:43:53;13.10;;;8.63;;
77061;SDS011;65989;51.686;5.138;2023-06-19T06:46:20;13.07;;;8.18;;
77061;SDS011;65989;51.686;5.138;2023-06-19T06:48:49;12.27;;;8.40;;
77061;SDS011;65989;51.686;5.138;2023-06-19T06:51:14;11.15;;;7.72;;
77061;SDS011;65989;51.686;5.138;2023-06-19T06:53:40;12.83;;;8.67;;
77061;SDS011;65989;51.686;5.138;2023-06-19T06:56:05;13.70;;;9.43;;
77061;SDS011;65989;51.686;5.138;2023-06-19T06:58:30;13.20;;;9.03;;
77061;SDS011;65989;51.686;5.138;2023-06-19T07:00:56;14.43;;;9.17;;
77061;SDS011;65989;51.686;5.138;2023-06-19T07:03:21;13.68;;;9.63;;
77061;SDS011;65989;51.686;5.138;2023-06-19T07:05:49;10.70;;;8.67;;
77061;SDS011;65989;51.686;5.138;2023-06-19T07:08:14;10.52;;;9.02;;
77061;SDS011;65989;51.686;5.138;2023-06-19T07:10:40;11.87;;;9.60;;
77061;SDS011;65989;51.686;5.138;2023-06-19T07:13:05;13.47;;;8.67;;
77061;SDS011;65989;51.686;5.138;2023-06-19T07:15:30;13.13;;;9.60;;
77061;SDS011;65989;51.686;5.138;2023-06-19T07:17:55;12.47;;;10.00;;
77061;SDS011;65989;51.686;5.138;2023-06-19T07:20:21;15.37;;;9.70;;
77061;SDS011;65989;51.686;5.138;2023-06-19T07:22:46;12.80;;;9.70;;
77061;SDS011;65989;51.686;5.138;2023-06-19T07:25:12;11.33;;;9.70;;
77061;SDS011;65989;51.686;5.138;2023-06-19T07:27:37;12.40;;;9.60;;
77061;SDS011;65989;51.686;5.138;2023-06-19T07:30:03;13.63;;;9.97;;
77061;SDS011;65989;51.686;5.138;2023-06-19T07:32:28;12.73;;;10.23;;
77061;SDS011;65989;51.686;5.138;2023-06-19T07:34:53;14.17;;;9.80;;
77061;SDS011;65989;51.686;5.138;2023-06-19T07:37:19;18.60;;;11.40;;
77061;SDS011;65989;51.686;5.138;2023-06-19T07:39:45;18.57;;;11.73;;
77061;SDS011;65989;51.686;5.138;2023-06-19T07:42:10;16.83;;;11.57;;
77061;SDS011;65989;51.686;5.138;2023-06-19T07:44:35;14.13;;;10.53;;
77061;SDS011;65989;51.686;5.138;2023-06-19T07:47:01;14.03;;;10.97;;
77061;SDS011;65989;51.686;5.138;2023-06-19T07:49:26;14.47;;;10.37;;
77061;SDS011;65989;51.686;5.138;2023-06-19T07:51:51;19.30;;;10.60;;
77061;SDS011;65989;51.686;5.138;2023-06-19T07:54:16;14.70;;;10.80;;
77061;SDS011;65989;51.686;5.138;2023-06-19T07:56:42;16.03;;;12.30;;
77061;SDS011;65989;51.686;5.138;2023-06-19T07:59:07;15.05;;;12.77;;
77061;SDS011;65989;51.686;5.138;2023-06-19T08:01:32;16.30;;;13.73;;
77061;SDS011;65989;51.686;5.138;2023-06-19T08:04:06;19.70;;;15.30;;
77061;SDS011;65989;51.686;5.138;2023-06-19T08:06:32;17.15;;;14.20;;
77061;SDS011;65989;51.686;5.138;2023-06-19T08:08:57;19.17;;;15.00;;
77061;SDS011;65989;51.686;5.138;2023-06-19T08:11:22;18.93;;;14.57;;
77061;SDS011;65989;51.686;5.138;2023-06-19T08:13:48;20.97;;;15.60;;
77061;SDS011;65989;51.686;5.138;2023-06-19T08:16:13;18.57;;;13.87;;
77061;SDS011;65989;51.686;5.138;2023-06-19T08:18:38;18.43;;;16.33;;
77061;SDS011;65989;51.686;5.138;2023-06-19T08:21:03;18.47;;;15.57;;
77061;SDS011;65989;51.686;5.138;2023-06-19T08:23:29;18.90;;;14.40;;
77061;SDS011;65989;51.686;5.138;2023-06-19T08:25:54;20.40;;;15.30;;
77061;SDS011;65989;51.686;5.138;2023-06-19T08:28:19;19.50;;;14.60;;
77061;SDS011;65989;51.686;5.138;2023-06-19T08:30:45;16.47;;;14.53;;
77061;SDS011;65989;51.686;5.138;2023-06-19T08:33:10;20.58;;;15.38;;
77061;SDS011;65989;51.686;5.138;2023-06-19T08:35:37;19.03;;;14.80;;
77061;SDS011;65989;51.686;5.138;2023-06-19T08:38:03;18.02;;;14.43;;
77061;SDS011;65989;51.686;5.138;2023-06-19T08:40:28;18.40;;;15.23;;
77061;SDS011;65989;51.686;5.138;2023-06-19T08:42:53;21.97;;;14.00;;
77061;SDS011;65989;51.686;5.138;2023-06-19T08:45:20;20.27;;;15.80;;
77061;SDS011;65989;51.686;5.138;2023-06-19T08:47:46;19.73;;;15.87;;
77061;SDS011;65989;51.686;5.138;2023-06-19T08:50:11;19.73;;;15.53;;
77061;SDS011;65989;51.686;5.138;2023-06-19T08:52:37;22.10;;;15.60;;
77061;SDS011;65989;51.686;5.138;2023-06-19T08:55:02;17.13;;;15.30;;
77061;SDS011;65989;51.686;5.138;2023-06-19T08:57:34;20.23;;;15.07;;
77061;SDS011;65989;51.686;5.138;2023-06-19T09:00:00;18.50;;;15.02;;
77061;SDS011;65989;51.686;5.138;2023-06-19T09:02:36;18.05;;;14.88;;
77061;SDS011;65989;51.686;5.138;2023-06-19T09:05:08;16.77;;;13.70;;
77061;SDS011;65989;51.686;5.138;2023-06-19T09:07:34;23.88;;;15.48;;
77061;SDS011;65989;51.686;5.138;2023-06-19T09:09:59;20.83;;;15.20;;
77061;SDS011;65989;51.686;5.138;2023-06-19T09:12:24;17.73;;;14.68;;
77061;SDS011;65989;51.686;5.138;2023-06-19T09:14:50;18.47;;;13.80;;
77061;SDS011;65989;51.686;5.138;2023-06-19T09:17:19;19.47;;;14.60;;
77061;SDS011;65989;51.686;5.138;2023-06-19T09:19:48;20.00;;;15.60;;
77061;SDS011;65989;51.686;5.138;2023-06-19T09:22:13;20.70;;;14.57;;
77061;SDS011;65989;51.686;5.138;2023-06-19T09:24:41;18.65;;;14.82;;
77061;SDS011;65989;51.686;5.138;2023-06-19T09:29:32;18.83;;;14.05;;
77061;SDS011;65989;51.686;5.138;2023-06-19T09:31:57;20.10;;;15.07;;
77061;SDS011;65989;51.686;5.138;2023-06-19T09:34:23;17.67;;;14.35;;
77061;SDS011;65989;51.686;5.138;2023-06-19T09:36:48;19.20;;;13.50;;
77061;SDS011;65989;51.686;5.138;2023-06-19T09:39:15;18.80;;;14.43;;
77061;SDS011;65989;51.686;5.138;2023-06-19T09:41:41;19.73;;;15.90;;
77061;SDS011;65989;51.686;5.138;2023-06-19T09:44:07;20.20;;;14.75;;
77061;SDS011;65989;51.686;5.138;2023-06-19T09:46:37;16.42;;;13.80;;
77061;SDS011;65989;51.686;5.138;2023-06-19T09:49:06;19.67;;;13.95;;
77061;SDS011;65989;51.686;5.138;2023-06-19T09:51:33;18.60;;;13.87;;
77061;SDS011;65989;51.686;5.138;2023-06-19T09:54:00;15.73;;;12.77;;
77061;SDS011;65989;51.686;5.138;2023-06-19T09:56:28;17.55;;;12.90;;
77061;SDS011;65989;51.686;5.138;2023-06-19T09:58:55;20.73;;;13.97;;
77061;SDS011;65989;51.686;5.138;2023-06-19T10:01:21;18.67;;;14.07;;
77061;SDS011;65989;51.686;5.138;2023-06-19T10:03:47;18.08;;;13.60;;
77061;SDS011;65989;51.686;5.138;2023-06-19T10:06:15;19.23;;;14.03;;
77061;SDS011;65989;51.686;5.138;2023-06-19T10:08:41;23.92;;;15.40;;
77061;SDS011;65989;51.686;5.138;2023-06-19T10:11:07;19.15;;;13.65;;
77061;SDS011;65989;51.686;5.138;2023-06-19T10:13:34;16.13;;;12.03;;
77061;SDS011;65989;51.686;5.138;2023-06-19T10:15:59;16.43;;;13.07;;
77061;SDS011;65989;51.686;5.138;2023-06-19T10:18:24;17.73;;;12.20;;
77061;SDS011;65989;51.686;5.138;2023-06-19T10:20:51;18.57;;;13.43;;
77061;SDS011;65989;51.686;5.138;2023-06-19T10:23:17;15.93;;;12.98;;
77061;SDS011;65989;51.686;5.138;2023-06-19T10:25:46;23.60;;;14.10;;
77061;SDS011;65989;51.686;5.138;2023-06-19T10:28:15;18.33;;;13.57;;
77061;SDS011;65989;51.686;5.138;2023-06-19T10:30:41;16.08;;;12.88;;
77061;SDS011;65989;51.686;5.138;2023-06-19T10:33:06;18.27;;;13.57;;
77061;SDS011;65989;51.686;5.138;2023-06-19T10:35:40;16.60;;;13.27;;
77061;SDS011;65989;51.686;5.138;2023-06-19T10:38:07;20.77;;;14.48;;
77061;SDS011;65989;51.686;5.138;2023-06-19T10:40:32;19.52;;;12.95;;
77061;SDS011;65989;51.686;5.138;2023-06-19T10:42:57;19.00;;;12.40;;
77061;SDS011;65989;51.686;5.138;2023-06-19T10:45:23;16.70;;;12.13;;
77061;SDS011;65989;51.686;5.138;2023-06-19T10:47:53;21.07;;;13.47;;
77061;SDS011;65989;51.686;5.138;2023-06-19T10:50:19;16.90;;;12.95;;
77061;SDS011;65989;51.686;5.138;2023-06-19T10:52:44;16.53;;;13.13;;
77061;SDS011;65989;51.686;5.138;2023-06-19T10:55:11;16.40;;;11.77;;
77061;SDS011;65989;51.686;5.138;2023-06-19T10:57:36;14.95;;;10.98;;
77061;SDS011;65989;51.686;5.138;2023-06-19T11:00:02;18.40;;;12.93;;
77061;SDS011;65989;51.686;5.138;2023-06-19T11:02:36;16.08;;;11.38;;
77061;SDS011;65989;51.686;5.138;2023-06-19T11:05:02;17.58;;;11.25;;
77061;SDS011;65989;51.686;5.138;2023-06-19T11:07:28;15.27;;;11.47;;
77061;SDS011;65989;51.686;5.138;2023-06-19T11:09:53;17.03;;;10.90;;
77061;SDS011;65989;51.686;5.138;2023-06-19T11:12:22;15.23;;;10.60;;
77061;SDS011;65989;51.686;5.138;2023-06-19T11:14:50;15.90;;;10.63;;
77061;SDS011;65989;51.686;5.138;2023-06-19T11:17:19;15.02;;;10.60;;
77061;SDS011;65989;51.686;5.138;2023-06-19T11:19:46;13.13;;;8.65;;
77061;SDS011;65989;51.686;5.138;2023-06-19T11:22:12;15.27;;;9.17;;
77061;SDS011;65989;51.686;5.138;2023-06-19T11:24:42;15.33;;;9.53;;
77061;SDS011;65989;51.686;5.138;2023-06-19T11:27:13;17.10;;;10.43;;
77061;SDS011;65989;51.686;5.138;2023-06-19T11:29:41;13.45;;;9.10;;
77061;SDS011;65989;51.686;5.138;2023-06-19T11:32:07;14.87;;;9.80;;
77061;SDS011;65989;51.686;5.138;2023-06-19T11:34:33;17.58;;;9.68;;
77061;SDS011;65989;51.686;5.138;2023-06-19T11:37:01;13.55;;;9.98;;
77061;SDS011;65989;51.686;5.138;2023-06-19T11:39:27;14.27;;;8.87;;
77061;SDS011;65989;51.686;5.138;2023-06-19T11:41:52;12.55;;;8.02;;
77061;SDS011;65989;51.686;5.138;2023-06-19T11:44:18;12.30;;;8.10;;
77061;SDS011;65989;51.686;5.138;2023-06-19T11:46:43;12.43;;;8.00;;
77061;SDS011;65989;51.686;5.138;2023-06-19T11:51:34;12.90;;;7.73;;
77061;SDS011;65989;51.686;5.138;2023-06-19T11:54:00;13.65;;;8.63;;
77061;SDS011;65989;51.686;5.138;2023-06-19T11:56:25;14.40;;;8.00;;
77061;SDS011;65989;51.686;5.138;2023-06-19T11:58:50;12.13;;;8.10;;
77061;SDS011;65989;51.686;5.138;2023-06-19T12:01:16;11.60;;;8.00;;
77061;SDS011;65989;51.686;5.138;2023-06-19T12:03:41;11.93;;;8.20;;
77061;SDS011;65989;51.686;5.138;2023-06-19T12:06:06;11.27;;;7.80;;
77061;SDS011;65989;51.686;5.138;2023-06-19T12:08:31;17.97;;;7.47;;
77061;SDS011;65989;51.686;5.138;2023-06-19T12:10:58;12.40;;;7.13;;
77061;SDS011;65989;51.686;5.138;2023-06-19T12:13:23;12.10;;;7.17;;
77061;SDS011;65989;51.686;5.138;2023-06-19T12:15:49;11.47;;;7.57;;
77061;SDS011;65989;51.686;5.138;2023-06-19T12:18:14;11.50;;;7.43;;
77061;SDS011;65989;51.686;5.138;2023-06-19T12:20:39;11.40;;;8.37;;
77061;SDS011;65989;51.686;5.138;2023-06-19T12:23:05;11.52;;;8.50;;
77061;SDS011;65989;51.686;5.138;2023-06-19T12:25:30;13.03;;;8.73;;
77061;SDS011;65989;51.686;5.138;2023-06-19T12:27:55;15.50;;;8.90;;
77061;SDS011;65989;51.686;5.138;2023-06-19T12:30:21;14.80;;;8.83;;
77061;SDS011;65989;51.686;5.138;2023-06-19T12:32:46;14.47;;;8.73;;
77061;SDS011;65989;51.686;5.138;2023-06-19T12:35:14;10.07;;;7.18;;
77061;SDS011;65989;51.686;5.138;2023-06-19T12:37:39;11.83;;;6.97;;
77061;SDS011;65989;51.686;5.138;2023-06-19T12:40:05;10.77;;;7.50;;
77061;SDS011;65989;51.686;5.138;2023-06-19T12:42:35;11.55;;;6.70;;
77061;SDS011;65989;51.686;5.138;2023-06-19T12:45:01;13.03;;;7.40;;
77061;SDS011;65989;51.686;5.138;2023-06-19T12:47:26;11.00;;;7.13;;
77061;SDS011;65989;51.686;5.138;2023-06-19T12:49:51;10.67;;;6.50;;
77061;SDS011;65989;51.686;5.138;2023-06-19T12:52:17;11.67;;;7.17;;
77061;SDS011;65989;51.686;5.138;2023-06-19T12:54:42;10.70;;;6.80;;
77061;SDS011;65989;51.686;5.138;2023-06-19T12:57:07;12.33;;;7.13;;
77061;SDS011;65989;51.686;5.138;2023-06-19T12:59:32;10.17;;;7.20;;
77061;SDS011;65989;51.686;5.138;2023-06-19T13:01:57;13.20;;;7.07;;
77061;SDS011;65989;51.686;5.138;2023-06-19T13:04:23;12.97;;;7.30;;
77061;SDS011;65989;51.686;5.138;2023-06-19T13:06:48;9.63;;;7.20;;
77061;SDS011;65989;51.686;5.138;2023-06-19T13:09:13;14.27;;;7.57;;
77061;SDS011;65989;51.686;5.138;2023-06-19T13:11:38;11.83;;;7.30;;
77061;SDS011;65989;51.686;5.138;2023-06-19T13:14:04;13.83;;;6.90;;
77061;SDS011;65989;51.686;5.138;2023-06-19T13:16:30;15.20;;;6.93;;
77061;SDS011;65989;51.686;5.138;2023-06-19T13:18:56;12.02;;;6.90;;
77061;SDS011;65989;51.686;5.138;2023-06-19T13:21:21;9.60;;;6.30;;
77061;SDS011;65989;51.686;5.138;2023-06-19T13:23:47;11.10;;;6.77;;
77061;SDS011;65989;51.686;5.138;2023-06-19T13:26:14;12.00;;;7.10;;
77061;SDS011;65989;51.686;5.138;2023-06-19T13:28:39;11.53;;;7.50;;
77061;SDS011;65989;51.686;5.138;2023-06-19T13:31:04;12.50;;;7.27;;
77061;SDS011;65989;51.686;5.138;2023-06-19T13:33:30;18.53;;;7.53;;
77061;SDS011;65989;51.686;5.138;2023-06-19T13:35:55;10.23;;;5.73;;
77061;SDS011;65989;51.686;5.138;2023-06-19T13:38:20;11.53;;;6.30;;
77061;SDS011;65989;51.686;5.138;2023-06-19T13:40:46;11.03;;;6.30;;
77061;SDS011;65989;51.686;5.138;2023-06-19T13:43:11;13.30;;;6.50;;
77061;SDS011;65989;51.686;5.138;2023-06-19T13:45:37;10.33;;;6.83;;
77061;SDS011;65989;51.686;5.138;2023-06-19T13:48:04;10.63;;;6.70;;
77061;SDS011;65989;51.686;5.138;2023-06-19T13:50:29;14.03;;;7.27;;
77061;SDS011;65989;51.686;5.138;2023-06-19T13:52:54;9.80;;;6.63;;
77061;SDS011;65989;51.686;5.138;2023-06-19T13:55:19;12.50;;;6.60;;
77061;SDS011;65989;51.686;5.138;2023-06-19T13:57:45;10.40;;;6.30;;
77061;SDS011;65989;51.686;5.138;2023-06-19T14:00:10;8.73;;;6.10;;
77061;SDS011;65989;51.686;5.138;2023-06-19T14:02:39;11.23;;;5.97;;
77061;SDS011;65989;51.686;5.138;2023-06-19T14:05:06;10.23;;;6.43;;
77061;SDS011;65989;51.686;5.138;2023-06-19T14:07:31;10.50;;;6.47;;
77061;SDS011;65989;51.686;5.138;2023-06-19T14:09:57;10.77;;;6.40;;
77061;SDS011;65989;51.686;5.138;2023-06-19T14:12:22;11.43;;;6.20;;
77061;SDS011;65989;51.686;5.138;2023-06-19T14:14:47;11.17;;;6.00;;
77061;SDS011;65989;51.686;5.138;2023-06-19T14:17:13;15.13;;;6.23;;
77061;SDS011;65989;51.686;5.138;2023-06-19T14:19:38;10.77;;;5.75;;
77061;SDS011;65989;51.686;5.138;2023-06-19T14:22:04;10.87;;;5.77;;
77061;SDS011;65989;51.686;5.138;2023-06-19T14:24:29;13.60;;;7.03;;
77061;SDS011;65989;51.686;5.138;2023-06-19T14:26:54;13.10;;;7.47;;
77061;SDS011;65989;51.686;5.138;2023-06-19T14:29:19;20.00;;;8.70;;
77061;SDS011;65989;51.686;5.138;2023-06-19T14:31:45;17.63;;;7.43;;
77061;SDS011;65989;51.686;5.138;2023-06-19T14:34:11;13.43;;;6.50;;
77061;SDS011;65989;51.686;5.138;2023-06-19T14:36:39;12.33;;;5.90;;